Furacão FAUSTO 2002: trajetória, intensidade e histórico
3/09/2002, 00:00:00
21/08/2002, 12:00:00 – 3/09/2002, 00:00:00
Trajetória histórica
Acompanhe a evolução e o deslocamento de Furacão FAUSTO em 2002, com a trajetória completa registrada, ventos máximos sustentados de 125 nós, pressão central mínima e cronologia detalhada.
| Data | Hora | Tipo | Ventokm/h | PressãohPa |
|---|---|---|---|---|
| 03/09 | 00:00 | TSTempestade tropical | 65 | 1016 |
| 02/09 | 21:00 | TSTempestade tropical | 65 | 1015 |
| 02/09 | 18:00 | TSTempestade tropical | 65 | 1014 |
| 02/09 | 15:00 | TSTempestade tropical | 65 | 1013 |
| 02/09 | 12:00 | TSTempestade tropical | 65 | 1011 |
| 02/09 | 09:00 | TSTempestade tropical | 65 | 1010 |
| 02/09 | 06:00 | TSTempestade tropical | 65 | 1009 |
| 02/09 | 03:00 | TSTempestade tropical | 65 | 1009 |
| 02/09 | 00:00 | TSTempestade tropical | 65 | 1009 |
| 01/09 | 21:00 | TSTempestade tropical | 65 | 1009 |
| 01/09 | 18:00 | TSTempestade tropical | 65 | 1009 |
| 01/09 | 15:00 | TDDepressão tropical | 60 | 1009 |
| 01/09 | 12:00 | TDDepressão tropical | 55 | 1009 |
| 01/09 | 09:00 | TDDepressão tropical | 55 | 1009 |
| 01/09 | 06:00 | TDDepressão tropical | 55 | 1009 |
| 01/09 | 03:00 | TDDepressão tropical | 55 | 1009 |
| 01/09 | 00:00 | TDDepressão tropical | 55 | 1009 |
| 31/08 | 21:00 | TDDepressão tropical | 55 | 1010 |
| 31/08 | 18:00 | TDDepressão tropical | 55 | 1010 |
| 31/08 | 15:00 | TDDepressão tropical | 55 | 1011 |
| 31/08 | 12:00 | TDDepressão tropical | 55 | 1012 |
| 31/08 | 09:00 | TDDepressão tropical | 55 | 1012 |
| 31/08 | 06:00 | TDDepressão tropical | 55 | 1012 |
| 31/08 | 03:00 | TDDepressão tropical | 55 | 1012 |
| 31/08 | 00:00 | TDDepressão tropical | 55 | 1012 |
| 30/08 | 21:00 | TDDepressão tropical | 55 | 1012 |
| 30/08 | 18:00 | TDDepressão tropical | 55 | 1012 |
| 30/08 | 15:00 | RBaixa remanescente | 55 | 1012 |
| 30/08 | 12:00 | RBaixa remanescente | 55 | 1012 |
| 30/08 | 09:00 | RBaixa remanescente | 55 | 1012 |
| 30/08 | 06:00 | RBaixa remanescente | 55 | 1012 |
| 30/08 | 03:00 | RBaixa remanescente | 55 | 1012 |
| 30/08 | 00:00 | RBaixa remanescente | 55 | 1012 |
| 29/08 | 21:00 | RBaixa remanescente | 50 | 1013 |
| 29/08 | 18:00 | RBaixa remanescente | 45 | 1013 |
| 29/08 | 15:00 | RBaixa remanescente | 45 | 1013 |
| 29/08 | 12:00 | RBaixa remanescente | 45 | 1013 |
| 29/08 | 09:00 | RBaixa remanescente | 45 | 1013 |
| 29/08 | 06:00 | RBaixa remanescente | 45 | 1012 |
| 29/08 | 03:00 | RBaixa remanescente | 45 | 1012 |
| 29/08 | 00:00 | RBaixa remanescente | 45 | 1012 |
| 28/08 | 21:00 | RBaixa remanescente | 50 | 1012 |
| 28/08 | 18:00 | RBaixa remanescente | 55 | 1012 |
| 28/08 | 15:00 | RBaixa remanescente | 55 | 1012 |
| 28/08 | 12:00 | RBaixa remanescente | 55 | 1011 |
| 28/08 | 09:00 | TDDepressão tropical | 55 | 1011 |
| 28/08 | 06:00 | TDDepressão tropical | 55 | 1010 |
| 28/08 | 03:00 | TDDepressão tropical | 55 | 1009 |
| 28/08 | 00:00 | TDDepressão tropical | 55 | 1008 |
| 27/08 | 21:00 | TSTempestade tropical | 60 | 1007 |
| 27/08 | 18:00 | TSTempestade tropical | 65 | 1005 |
| 27/08 | 15:00 | TSTempestade tropical | 65 | 1005 |
| 27/08 | 12:00 | TSTempestade tropical | 65 | 1005 |
| 27/08 | 09:00 | TSTempestade tropical | 70 | 1004 |
| 27/08 | 06:00 | TSTempestade tropical | 75 | 1002 |
| 27/08 | 03:00 | TSTempestade tropical | 80 | 1001 |
| 27/08 | 00:00 | TSTempestade tropical | 85 | 1000 |
| 26/08 | 21:00 | TSTempestade tropical | 90 | 999 |
| 26/08 | 18:00 | TSTempestade tropical | 95 | 997 |
| 26/08 | 15:00 | TSTempestade tropical | 100 | 994 |
| 26/08 | 12:00 | TSTempestade tropical | 110 | 990 |
| 26/08 | 09:00 | HFuracão | 125 | 986 |
| 26/08 | 06:00 | HFuracão | 140 | 981 |
| 26/08 | 03:00 | HFuracão | 150 | 977 |
| 26/08 | 00:00 | HFuracão | 155 | 973 |
| 25/08 | 21:00 | HFuracão | 165 | 972 |
| 25/08 | 18:00 | HFuracão | 165 | 970 |
| 25/08 | 15:00 | HFuracão | 170 | 968 |
| 25/08 | 12:00 | HFuracão | 175 | 966 |
| 25/08 | 09:00 | HFuracão | 190 | 959 |
| 25/08 | 06:00 | MHFuracão de grande intensidade | 205 | 952 |
| 25/08 | 03:00 | HFuracão | 215 | 947 |
| 25/08 | 00:00 | MHFuracão de grande intensidade | 220 | 942 |
| 24/08 | 21:00 | HFuracão | 230 | 939 |
| 24/08 | 18:00 | MHFuracão de grande intensidade | 230 | 936 |
| 24/08 | 15:00 | HFuracão | 230 | 936 |
| 24/08 | 12:00 | MHFuracão de grande intensidade | 230 | 936 |
| 24/08 | 09:00 | HFuracão | 230 | 939 |
| 24/08 | 06:00 | MHFuracão de grande intensidade | 220 | 942 |
| 24/08 | 03:00 | HFuracão | 215 | 947 |
| 24/08 | 00:00 | MHFuracão de grande intensidade | 205 | 952 |
| 23/08 | 21:00 | HFuracão | 195 | 957 |
| 23/08 | 18:00 | MHFuracão de grande intensidade | 185 | 962 |
| 23/08 | 15:00 | HFuracão | 175 | 964 |
| 23/08 | 12:00 | HFuracão | 165 | 966 |
| 23/08 | 09:00 | HFuracão | 155 | 971 |
| 23/08 | 06:00 | HFuracão | 150 | 976 |
| 23/08 | 03:00 | HFuracão | 140 | 978 |
| 23/08 | 00:00 | HFuracão | 130 | 979 |
| 22/08 | 21:00 | HFuracão | 125 | 983 |
| 22/08 | 18:00 | HFuracão | 120 | 987 |
| 22/08 | 15:00 | TSTempestade tropical | 110 | 991 |
| 22/08 | 12:00 | TSTempestade tropical | 100 | 994 |
| 22/08 | 09:00 | TSTempestade tropical | 95 | 997 |
| 22/08 | 06:00 | TSTempestade tropical | 85 | 1000 |
| 22/08 | 03:00 | TSTempestade tropical | 75 | 1002 |
| 22/08 | 00:00 | TSTempestade tropical | 65 | 1004 |
| 21/08 | 21:00 | TDDepressão tropical | 60 | 1005 |
| 21/08 | 18:00 | TDDepressão tropical | 55 | 1005 |
| 21/08 | 15:00 | TDDepressão tropical | 50 | 1006 |
| 21/08 | 12:00 | TDDepressão tropical | 45 | 1006 |
Cronologia de localização
101 Registos de localizaçãoDetalhes do evento
Ligações das fontes
A localização, a extensão e o estado de cada evento podem ser atualizados em momentos diferentes consoante a fonte. Confirme decisões importantes junto das autoridades oficiais de emergência.
Os registos de eventos provêm da NASA EONET e são complementados por registos de deslizamentos de terra do USGS FDSN. As análises e previsões de tempestades podem utilizar a NOAA NHC ou o JTWC, com registos históricos ATCF da UCAR/NCAR quando disponíveis. As imagens de satélite provêm da NASA Worldview/GIBS (GOES e Himawari) ou da EUMETSAT Meteosat, consoante a cobertura do mapa.
Fontes: NASA EONET · USGS · NOAA NHC · JTWC · UCAR/NCAR ATCF · NASA Worldview/GIBS · EUMETSAT Meteosat · OpenStreetMap contributors